Time,TemperatureF,DewpointF,PressureIn,WindDirection,WindDirectionDegrees,WindSpeedMPH,WindSpeedGustMPH,Humidity,HourlyPrecipIn,Conditions,Clouds,dailyrainin,SoftwareType,DateUTC
2013-04-12 00:03:00,58.0,51.0,-100.00,East,95,12.0,17.0,79,0.00,,,-99.99,,2013-04-12 04:03:00,
2013-04-12 00:13:00,57.0,51.0,-100.00,East,100,10.0,19.0,79,0.00,,,-99.99,,2013-04-12 04:13:00,
2013-04-12 00:23:00,57.0,51.0,-100.00,ESE,110,11.0,19.0,79,0.00,,,-99.99,,2013-04-12 04:23:00,
2013-04-12 00:33:00,57.0,51.0,-100.00,ESE,115,7.0,16.0,80,0.00,,,-99.99,,2013-04-12 04:33:00,
2013-04-12 00:43:00,57.0,51.0,-100.00,SE,125,9.0,15.0,79,0.00,,,-99.99,,2013-04-12 04:43:00,
2013-04-12 00:52:00,58.0,51.0,-100.00,West,265,12.0,21.0,79,0.00,,,-99.99,,2013-04-12 04:52:00,
2013-04-12 01:03:00,58.0,51.0,-100.00,SW,235,2.0,15.0,78,0.00,,,-99.99,,2013-04-12 05:03:00,
2013-04-12 01:12:00,58.0,52.0,-100.00,WNW,295,3.0,9.0,79,0.00,,,-99.99,,2013-04-12 05:12:00,
2013-04-12 01:23:00,58.0,52.0,-100.00,NW,315,1.0,4.0,80,0.00,,,-99.99,,2013-04-12 05:23:00,
2013-04-12 01:32:00,58.0,52.0,-100.00,North,350,1.0,2.0,81,0.00,,,-99.99,,2013-04-12 05:32:00,
2013-04-12 01:42:00,57.0,52.0,-100.00,ENE,65,2.0,4.0,81,0.00,,,-99.99,,2013-04-12 05:42:00,
2013-04-12 01:52:00,57.0,52.0,-100.00,East,100,2.0,4.0,82,0.00,,,-99.99,,2013-04-12 05:52:00,
2013-04-12 02:02:00,57.0,52.0,-100.00,ESE,115,3.0,5.0,83,0.00,,,-99.99,,2013-04-12 06:02:00,
2013-04-12 02:12:00,57.0,52.0,-100.00,SE,130,4.0,4.0,83,0.00,,,-99.99,,2013-04-12 06:12:00,
2013-04-12 02:22:00,57.0,52.0,-100.00,ESE,120,6.0,7.0,82,0.00,,,-99.99,,2013-04-12 06:22:00,
2013-04-12 02:32:00,57.0,52.0,-100.00,SE,130,7.0,9.0,82,0.00,,,-99.99,,2013-04-12 06:32:00,
2013-04-12 02:42:00,56.0,52.0,-100.00,SE,125,7.0,9.0,83,0.00,,,-99.99,,2013-04-12 06:42:00,
2013-04-12 02:52:00,56.0,52.0,-100.00,ESE,115,6.0,9.0,85,0.00,,,-99.99,,2013-04-12 06:52:00,
2013-04-12 03:02:00,56.0,52.0,-100.00,SE,135,6.0,9.0,85,0.00,,,-99.99,,2013-04-12 07:02:00,
2013-04-12 03:11:00,56.0,52.0,-100.00,SE,130,7.0,11.0,86,0.00,,,-99.99,,2013-04-12 07:11:00,
2013-04-12 03:22:00,56.0,52.0,-100.00,SE,140,4.0,9.0,86,0.00,,,-99.99,,2013-04-12 07:22:00,
2013-04-12 03:32:00,56.0,52.0,-100.00,SE,145,3.0,9.0,86,0.00,,,-99.99,,2013-04-12 07:32:00,
2013-04-12 03:42:00,56.0,53.0,-100.00,SSE,165,3.0,7.0,87,0.00,,,-99.99,,2013-04-12 07:42:00,
2013-04-12 03:52:00,56.0,53.0,-100.00,NW,315,4.0,14.0,88,0.00,,,-99.99,,2013-04-12 07:52:00,
2013-04-12 04:03:00,57.0,53.0,-100.00,West,270,3.0,9.0,88,0.00,,,-99.99,,2013-04-12 08:03:00,
2013-04-12 04:12:00,57.0,54.0,-100.00,West,280,1.0,3.0,88,0.00,,,-99.99,,2013-04-12 08:12:00,
2013-04-12 04:22:00,57.0,54.0,-100.00,SW,225,2.0,3.0,88,0.00,,,-99.99,,2013-04-12 08:22:00,
2013-04-12 04:32:00,57.0,54.0,-100.00,SE,140,2.0,6.0,89,0.00,,,-99.99,,2013-04-12 08:32:00,
2013-04-12 04:42:00,57.0,54.0,-100.00,SSE,155,1.0,3.0,89,0.00,,,-99.99,,2013-04-12 08:42:00,
2013-04-12 04:52:00,58.0,55.0,-100.00,South,190,1.0,3.0,89,0.00,,,-99.99,,2013-04-12 08:52:00,
2013-04-12 05:02:00,57.0,54.0,-100.00,SE,135,1.0,4.0,89,0.00,,,-99.99,,2013-04-12 09:02:00,
2013-04-12 05:12:00,57.0,54.0,-100.00,SE,145,1.0,3.0,89,0.00,,,-99.99,,2013-04-12 09:12:00,
2013-04-12 05:22:00,57.0,55.0,-100.00,SSE,150,1.0,3.0,89,0.00,,,-99.99,,2013-04-12 09:22:00,
2013-04-12 05:33:00,58.0,55.0,-100.00,SSE,155,2.0,5.0,90,0.55,,,-99.99,,2013-04-12 09:33:00,
2013-04-12 05:43:00,58.0,55.0,-100.00,SE,140,2.0,5.0,90,0.00,,,-99.99,,2013-04-12 09:43:00,
2013-04-12 05:52:00,58.0,55.0,-100.00,SSE,165,2.0,6.0,90,0.00,,,-99.99,,2013-04-12 09:52:00,
2013-04-12 06:03:00,58.0,56.0,-100.00,SSE,150,3.0,6.0,91,0.55,,,-99.99,,2013-04-12 10:03:00,
2013-04-12 06:13:00,58.0,56.0,-100.00,South,170,4.0,8.0,91,1.10,,,-99.99,,2013-04-12 10:13:00,
2013-04-12 06:23:00,59.0,56.0,-100.00,SSW,195,3.0,9.0,91,3.94,,,-99.99,,2013-04-12 10:23:00,
2013-04-12 06:34:00,59.0,56.0,-100.00,SSW,195,4.0,9.0,91,1.69,,,-99.99,,2013-04-12 10:34:00,
2013-04-12 06:42:00,59.0,56.0,-100.00,South,180,4.0,9.0,91,1.10,,,-99.99,,2013-04-12 10:42:00,
2013-04-12 06:52:00,59.0,56.0,-100.00,South,190,6.0,12.0,91,3.94,,,-99.99,,2013-04-12 10:52:00,
2013-04-12 07:03:00,59.0,56.0,-100.00,SSE,160,3.0,11.0,91,1.10,,,-99.99,,2013-04-12 11:03:00,
2013-04-12 07:13:00,59.0,56.0,-100.00,SSW,195,4.0,11.0,91,1.69,,,-99.99,,2013-04-12 11:13:00,
2013-04-12 07:22:00,59.0,56.0,-100.00,SSW,195,6.0,13.0,91,1.69,,,-99.99,,2013-04-12 11:22:00,
2013-04-12 07:32:00,59.0,56.0,-100.00,South,190,4.0,11.0,91,1.69,,,-99.99,,2013-04-12 11:32:00,
2013-04-12 07:42:00,59.0,56.0,-100.00,South,170,4.0,9.0,91,1.10,,,-99.99,,2013-04-12 11:42:00,
2013-04-12 07:52:00,59.0,56.0,-100.00,SSW,200,4.0,8.0,91,2.83,,,-99.99,,2013-04-12 11:52:00,
2013-04-12 08:03:00,59.0,56.0,-100.00,SW,220,2.0,7.0,92,0.55,,,-99.99,,2013-04-12 12:03:00,
2013-04-12 08:13:00,59.0,56.0,-100.00,SSW,200,4.0,12.0,92,3.94,,,-99.99,,2013-04-12 12:13:00,
2013-04-12 08:22:00,58.0,56.0,-100.00,WSW,240,12.0,22.0,92,0.00,,,-99.99,,2013-04-12 12:22:00,
2013-04-12 08:33:00,58.0,56.0,-100.00,WSW,250,11.0,22.0,92,0.00,,,-99.99,,2013-04-12 12:33:00,
2013-04-12 08:42:00,58.0,56.0,-100.00,West,265,11.0,21.0,92,0.00,,,-99.99,,2013-04-12 12:42:00,
2013-04-12 08:52:00,58.0,56.0,-100.00,West,270,9.0,22.0,91,0.00,,,-99.99,,2013-04-12 12:52:00,
2013-04-12 09:03:00,58.0,55.0,-100.00,WSW,250,10.0,16.0,90,0.00,,,-99.99,,2013-04-12 13:03:00,
2013-04-12 09:12:00,58.0,54.0,-100.00,WSW,255,14.0,26.0,87,0.00,,,-99.99,,2013-04-12 13:12:00,
2013-04-12 09:22:00,57.0,53.0,-100.00,West,270,14.0,19.0,86,0.00,,,-99.99,,2013-04-12 13:22:00,
2013-04-12 09:32:00,56.0,52.0,-100.00,WNW,290,13.0,24.0,85,0.00,,,-99.99,,2013-04-12 13:32:00,
2013-04-12 09:42:00,56.0,51.0,-100.00,WNW,285,10.0,21.0,83,0.00,,,-99.99,,2013-04-12 13:42:00,
2013-04-12 09:52:00,56.0,51.0,-100.00,West,275,9.0,16.0,84,0.00,,,-99.99,,2013-04-12 13:52:00,
2013-04-12 10:13:00,56.0,50.0,-100.00,West,270,16.0,25.0,80,0.00,,,-99.99,,2013-04-12 14:13:00,
2013-04-12 10:23:00,55.0,49.0,-100.00,West,270,16.0,24.0,79,0.00,,,-99.99,,2013-04-12 14:23:00,
2013-04-12 10:33:00,55.0,50.0,-100.00,West,270,12.0,19.0,81,0.00,,,-99.99,,2013-04-12 14:33:00,
2013-04-12 10:42:00,54.0,49.0,-100.00,West,260,16.0,23.0,82,0.00,,,-99.99,,2013-04-12 14:42:00,
2013-04-12 10:53:00,53.0,48.0,-100.00,West,275,13.0,20.0,83,0.00,,,-99.99,,2013-04-12 14:53:00,
2013-04-12 11:03:00,51.0,46.0,-100.00,West,275,13.0,22.0,83,0.00,,,-99.99,,2013-04-12 15:03:00,
2013-04-12 11:12:00,50.0,45.0,-100.00,NW,305,9.0,19.0,84,0.00,,,-99.99,,2013-04-12 15:12:00,
2013-04-12 11:22:00,48.0,44.0,-100.00,WSW,255,15.0,22.0,87,0.00,,,-99.99,,2013-04-12 15:22:00,
2013-04-12 11:33:00,48.0,44.0,-100.00,West,275,14.0,23.0,87,0.00,,,-99.99,,2013-04-12 15:33:00,
2013-04-12 11:43:00,49.0,45.0,-100.00,WSW,245,7.0,19.0,86,0.00,,,-99.99,,2013-04-12 15:43:00,
2013-04-12 11:53:00,49.0,44.0,-100.00,WSW,245,10.0,22.0,82,0.00,,,-99.99,,2013-04-12 15:53:00,
2013-04-12 12:04:00,50.0,44.0,-100.00,WSW,250,7.0,16.0,79,0.00,,,-99.99,,2013-04-12 16:04:00,
2013-04-12 12:13:00,50.0,44.0,-100.00,WSW,245,11.0,17.0,77,0.00,,,-99.99,,2013-04-12 16:13:00,
2013-04-12 12:23:00,50.0,43.0,-100.00,WSW,245,15.0,25.0,75,0.00,,,-99.99,,2013-04-12 16:23:00,
2013-04-12 12:33:00,51.0,43.0,-100.00,WSW,240,9.0,22.0,74,0.00,,,-99.99,,2013-04-12 16:33:00,
2013-04-12 12:42:00,50.0,42.0,-100.00,West,260,15.0,25.0,75,0.00,,,-99.99,,2013-04-12 16:42:00,
2013-04-12 12:52:00,49.0,42.0,-100.00,WSW,250,11.0,23.0,75,0.00,,,-99.99,,2013-04-12 16:52:00,
2013-04-12 13:03:00,50.0,42.0,-100.00,WSW,250,11.0,24.0,73,0.00,,,-99.99,,2013-04-12 17:03:00,
2013-04-12 13:12:00,51.0,42.0,-100.00,SW,220,12.0,23.0,71,0.00,,,-99.99,,2013-04-12 17:12:00,
2013-04-12 13:23:00,50.0,42.0,-100.00,WSW,245,9.0,19.0,73,0.00,,,-99.99,,2013-04-12 17:23:00,
2013-04-12 13:33:00,50.0,41.0,-100.00,West,265,11.0,19.0,72,0.00,,,-99.99,,2013-04-12 17:33:00,
2013-04-12 13:45:00,51.0,42.0,-100.00,West,265,10.0,22.0,70,0.00,,,-99.99,,2013-04-12 17:45:00,
2013-04-12 13:58:00,51.0,41.0,-100.00,SW,225,11.0,16.0,68,0.00,,,-99.99,,2013-04-12 17:58:00,
2013-04-12 14:10:00,51.0,40.0,-100.00,WSW,250,12.0,23.0,67,0.00,,,-99.99,,2013-04-12 18:10:00,
2013-04-12 14:20:00,51.0,40.0,-100.00,WSW,250,12.0,22.0,65,0.00,,,-99.99,,2013-04-12 18:20:00,
2013-04-12 15:26:00,49.0,39.0,-100.00,WNW,300,12.0,22.0,66,0.00,,,-99.99,,2013-04-12 19:26:00,
2013-04-12 15:33:00,49.0,38.0,-100.00,West,260,14.0,22.0,65,0.00,,,-99.99,,2013-04-12 19:33:00,
2013-04-12 15:43:00,49.0,38.0,-100.00,WNW,290,11.0,19.0,65,0.00,,,-99.99,,2013-04-12 19:43:00,
2013-04-12 15:52:00,47.0,37.0,-100.00,West,270,12.0,23.0,68,0.00,,,-99.99,,2013-04-12 19:52:00,
2013-04-12 16:02:00,47.0,37.0,-100.00,WSW,240,13.0,20.0,68,0.00,,,-99.99,,2013-04-12 20:02:00,
2013-04-12 16:12:00,46.0,37.0,-100.00,West,280,14.0,21.0,69,0.00,,,-99.99,,2013-04-12 20:12:00,
2013-04-12 16:22:00,45.0,37.0,-100.00,WSW,255,14.0,22.0,72,0.00,,,-99.99,,2013-04-12 20:22:00,
2013-04-12 16:32:00,45.0,36.0,-100.00,WSW,255,14.0,27.0,70,0.00,,,-99.99,,2013-04-12 20:32:00,
2013-04-12 16:42:00,45.0,36.0,-100.00,WSW,255,9.0,21.0,70,0.00,,,-99.99,,2013-04-12 20:42:00,
2013-04-12 16:52:00,45.0,37.0,-100.00,West,260,10.0,22.0,72,0.00,,,-99.99,,2013-04-12 20:52:00,
2013-04-12 17:02:00,45.0,35.0,-100.00,WSW,255,12.0,21.0,68,0.00,,,-99.99,,2013-04-12 21:02:00,
2013-04-12 17:12:00,45.0,35.0,-100.00,WSW,255,11.0,22.0,66,0.00,,,-99.99,,2013-04-12 21:12:00,
2013-04-12 17:22:00,45.0,33.0,-100.00,WSW,250,15.0,23.0,63,0.00,,,-99.99,,2013-04-12 21:22:00,
2013-04-12 17:33:00,45.0,34.0,-100.00,West,260,12.0,24.0,65,0.00,,,-99.99,,2013-04-12 21:33:00,
2013-04-12 17:43:00,44.0,34.0,-100.00,WSW,245,11.0,25.0,67,0.00,,,-99.99,,2013-04-12 21:43:00,
2013-04-12 17:52:00,44.0,34.0,-100.00,WSW,255,10.0,21.0,67,0.00,,,-99.99,,2013-04-12 21:52:00,
2013-04-12 18:02:00,44.0,34.0,-100.00,West,275,9.0,19.0,68,0.00,,,-99.99,,2013-04-12 22:02:00,
2013-04-12 18:13:00,43.0,33.0,-100.00,WSW,250,11.0,25.0,67,0.00,,,-99.99,,2013-04-12 22:13:00,
2013-04-12 18:22:00,43.0,33.0,-100.00,West,270,13.0,21.0,67,0.00,,,-99.99,,2013-04-12 22:22:00,
2013-04-12 18:33:00,43.0,33.0,-100.00,West,265,14.0,22.0,67,0.00,,,-99.99,,2013-04-12 22:33:00,
2013-04-12 18:42:00,43.0,33.0,-100.00,WNW,290,12.0,18.0,67,0.00,,,-99.99,,2013-04-12 22:42:00,
2013-04-12 18:52:00,43.0,32.0,-100.00,West,270,9.0,13.0,65,0.00,,,-99.99,,2013-04-12 22:52:00,
2013-04-12 19:04:00,43.0,33.0,-100.00,West,265,6.0,16.0,66,0.00,,,-99.99,,2013-04-12 23:04:00,
2013-04-12 19:12:00,43.0,32.0,-100.00,WNW,290,8.0,12.0,65,0.00,,,-99.99,,2013-04-12 23:12:00,
2013-04-12 19:22:00,43.0,33.0,-100.00,WNW,285,6.0,11.0,67,0.00,,,-99.99,,2013-04-12 23:22:00,
2013-04-12 19:32:00,43.0,33.0,-100.00,WNW,285,4.0,10.0,67,0.00,,,-99.99,,2013-04-12 23:32:00,
2013-04-12 19:42:00,43.0,33.0,-100.00,West,270,4.0,8.0,67,0.00,,,-99.99,,2013-04-12 23:42:00,
2013-04-12 19:52:00,43.0,33.0,-100.00,WNW,285,4.0,6.0,67,0.00,,,-99.99,,2013-04-12 23:52:00,
2013-04-12 20:02:00,42.0,33.0,-100.00,West,265,5.0,8.0,68,0.00,,,-99.99,,2013-04-13 00:02:00,
2013-04-12 20:12:00,42.0,33.0,-100.00,WNW,295,4.0,6.0,68,0.00,,,-99.99,,2013-04-13 00:12:00,
2013-04-12 20:22:00,42.0,34.0,-100.00,West,275,3.0,6.0,70,0.00,,,-99.99,,2013-04-13 00:22:00,
2013-04-12 20:32:00,42.0,33.0,-100.00,WSW,255,7.0,9.0,68,0.00,,,-99.99,,2013-04-13 00:32:00,
2013-04-12 20:42:00,42.0,33.0,-100.00,WNW,290,3.0,9.0,70,0.00,,,-99.99,,2013-04-13 00:42:00,
2013-04-12 20:52:00,42.0,33.0,-100.00,West,265,2.0,7.0,71,0.00,,,-99.99,,2013-04-13 00:52:00,
2013-04-12 21:02:00,42.0,33.0,-100.00,West,270,6.0,9.0,71,0.00,,,-99.99,,2013-04-13 01:02:00,
2013-04-12 21:13:00,42.0,33.0,-100.00,WSW,255,6.0,12.0,69,0.00,,,-99.99,,2013-04-13 01:13:00,
2013-04-12 21:22:00,42.0,33.0,-100.00,WNW,285,8.0,16.0,68,0.00,,,-99.99,,2013-04-13 01:22:00,
2013-04-12 21:33:00,42.0,33.0,-100.00,WSW,255,7.0,12.0,70,0.00,,,-99.99,,2013-04-13 01:33:00,
2013-04-12 21:42:00,42.0,33.0,-100.00,West,280,7.0,13.0,70,0.00,,,-99.99,,2013-04-13 01:42:00,
2013-04-12 21:52:00,42.0,33.0,-100.00,West,270,5.0,12.0,70,0.00,,,-99.99,,2013-04-13 01:52:00,
2013-04-12 22:02:00,42.0,33.0,-100.00,West,270,5.0,9.0,70,0.00,,,-99.99,,2013-04-13 02:02:00,
2013-04-12 22:12:00,42.0,33.0,-100.00,West,280,4.0,10.0,70,0.00,,,-99.99,,2013-04-13 02:12:00,
2013-04-12 22:22:00,42.0,33.0,-100.00,West,270,4.0,7.0,70,0.00,,,-99.99,,2013-04-13 02:22:00,
2013-04-12 22:33:00,42.0,33.0,-100.00,WSW,255,3.0,9.0,71,0.00,,,-99.99,,2013-04-13 02:33:00,
2013-04-12 22:42:00,42.0,33.0,-100.00,West,260,4.0,8.0,72,0.00,,,-99.99,,2013-04-13 02:42:00,
2013-04-12 22:52:00,42.0,33.0,-100.00,WSW,240,4.0,7.0,71,0.00,,,-99.99,,2013-04-13 02:52:00,
2013-04-12 23:03:00,42.0,33.0,-100.00,WSW,250,4.0,7.0,72,0.00,,,-99.99,,2013-04-13 03:03:00,
2013-04-12 23:12:00,41.0,33.0,-100.00,SSW,210,3.0,9.0,72,0.00,,,-99.99,,2013-04-13 03:12:00,
2013-04-12 23:23:00,41.0,33.0,-100.00,WSW,245,3.0,6.0,72,0.00,,,-99.99,,2013-04-13 03:23:00,
2013-04-12 23:33:00,41.0,33.0,-100.00,West,265,2.0,6.0,72,0.00,,,-99.99,,2013-04-13 03:33:00,
2013-04-12 23:42:00,41.0,33.0,-100.00,WSW,255,4.0,6.0,73,0.00,,,-99.99,,2013-04-13 03:42:00,
2013-04-12 23:53:00,41.0,33.0,-100.00,West,275,4.0,6.0,73,0.00,,,-99.99,,2013-04-13 03:53:00,